sensor_id;sensor_type;location;lat;lon;timestamp;P1;durP1;ratioP1;P2;durP2;ratioP2
51764;SDS011;37835;53.256;6.456;2023-06-14T00:01:23;3.08;;;1.58;;
51764;SDS011;37835;53.256;6.456;2023-06-14T00:03:50;3.33;;;1.35;;
51764;SDS011;37835;53.256;6.456;2023-06-14T00:06:15;5.85;;;1.98;;
51764;SDS011;37835;53.256;6.456;2023-06-14T00:08:42;4.50;;;1.80;;
51764;SDS011;37835;53.256;6.456;2023-06-14T00:11:07;5.10;;;1.58;;
51764;SDS011;37835;53.256;6.456;2023-06-14T00:13:33;4.57;;;1.58;;
51764;SDS011;37835;53.256;6.456;2023-06-14T00:15:59;3.17;;;1.50;;
51764;SDS011;37835;53.256;6.456;2023-06-14T00:18:24;4.70;;;1.40;;
51764;SDS011;37835;53.256;6.456;2023-06-14T00:20:51;2.28;;;1.38;;
51764;SDS011;37835;53.256;6.456;2023-06-14T00:23:17;2.15;;;1.52;;
51764;SDS011;37835;53.256;6.456;2023-06-14T00:25:43;6.78;;;1.50;;
51764;SDS011;37835;53.256;6.456;2023-06-14T00:28:08;6.10;;;1.73;;
51764;SDS011;37835;53.256;6.456;2023-06-14T00:30:34;4.10;;;1.40;;
51764;SDS011;37835;53.256;6.456;2023-06-14T00:33:00;4.32;;;1.45;;
51764;SDS011;37835;53.256;6.456;2023-06-14T00:35:26;5.68;;;1.60;;
51764;SDS011;37835;53.256;6.456;2023-06-14T00:37:51;5.22;;;1.63;;
51764;SDS011;37835;53.256;6.456;2023-06-14T00:40:19;3.35;;;1.40;;
51764;SDS011;37835;53.256;6.456;2023-06-14T00:42:45;6.88;;;1.30;;
51764;SDS011;37835;53.256;6.456;2023-06-14T00:45:11;3.22;;;1.40;;
51764;SDS011;37835;53.256;6.456;2023-06-14T00:47:36;5.75;;;1.63;;
51764;SDS011;37835;53.256;6.456;2023-06-14T00:50:04;1.95;;;1.00;;
51764;SDS011;37835;53.256;6.456;2023-06-14T00:52:32;1.65;;;1.13;;
51764;SDS011;37835;53.256;6.456;2023-06-14T00:54:57;5.18;;;1.42;;
51764;SDS011;37835;53.256;6.456;2023-06-14T00:57:23;4.18;;;1.50;;
51764;SDS011;37835;53.256;6.456;2023-06-14T00:59:49;4.13;;;1.42;;
51764;SDS011;37835;53.256;6.456;2023-06-14T01:02:15;3.90;;;1.10;;
51764;SDS011;37835;53.256;6.456;2023-06-14T01:04:43;3.08;;;1.40;;
51764;SDS011;37835;53.256;6.456;2023-06-14T01:10:17;2.03;;;1.15;;
51764;SDS011;37835;53.256;6.456;2023-06-14T01:15:37;1.50;;;1.35;;
51764;SDS011;37835;53.256;6.456;2023-06-14T01:18:04;3.80;;;1.50;;
51764;SDS011;37835;53.256;6.456;2023-06-14T01:20:34;4.15;;;1.33;;
51764;SDS011;37835;53.256;6.456;2023-06-14T01:23:02;5.22;;;1.33;;
51764;SDS011;37835;53.256;6.456;2023-06-14T01:25:28;5.03;;;1.50;;
51764;SDS011;37835;53.256;6.456;2023-06-14T01:27:55;3.38;;;1.20;;
51764;SDS011;37835;53.256;6.456;2023-06-14T01:30:24;2.40;;;1.20;;
51764;SDS011;37835;53.256;6.456;2023-06-14T01:32:51;2.13;;;1.42;;
51764;SDS011;37835;53.256;6.456;2023-06-14T01:35:18;6.85;;;1.60;;
51764;SDS011;37835;53.256;6.456;2023-06-14T01:37:45;8.35;;;1.70;;
51764;SDS011;37835;53.256;6.456;2023-06-14T01:40:13;4.13;;;1.52;;
51764;SDS011;37835;53.256;6.456;2023-06-14T01:42:40;4.88;;;1.73;;
51764;SDS011;37835;53.256;6.456;2023-06-14T01:45:07;7.03;;;1.85;;
51764;SDS011;37835;53.256;6.456;2023-06-14T01:47:35;2.75;;;1.30;;
51764;SDS011;37835;53.256;6.456;2023-06-14T01:50:01;3.55;;;1.23;;
51764;SDS011;37835;53.256;6.456;2023-06-14T01:52:28;3.67;;;1.50;;
51764;SDS011;37835;53.256;6.456;2023-06-14T01:54:53;8.65;;;1.50;;
51764;SDS011;37835;53.256;6.456;2023-06-14T01:57:19;2.65;;;1.30;;
51764;SDS011;37835;53.256;6.456;2023-06-14T01:59:45;5.57;;;2.08;;
51764;SDS011;37835;53.256;6.456;2023-06-14T02:02:13;3.10;;;1.60;;
51764;SDS011;37835;53.256;6.456;2023-06-14T02:04:40;4.35;;;1.40;;
51764;SDS011;37835;53.256;6.456;2023-06-14T02:07:06;4.97;;;1.40;;
51764;SDS011;37835;53.256;6.456;2023-06-14T02:09:33;1.70;;;1.60;;
51764;SDS011;37835;53.256;6.456;2023-06-14T02:11:58;5.32;;;1.70;;
51764;SDS011;37835;53.256;6.456;2023-06-14T02:14:24;2.92;;;1.42;;
51764;SDS011;37835;53.256;6.456;2023-06-14T02:16:51;3.38;;;1.50;;
51764;SDS011;37835;53.256;6.456;2023-06-14T02:19:18;4.50;;;1.42;;
51764;SDS011;37835;53.256;6.456;2023-06-14T02:21:45;3.30;;;1.85;;
51764;SDS011;37835;53.256;6.456;2023-06-14T02:24:12;1.90;;;1.58;;
51764;SDS011;37835;53.256;6.456;2023-06-14T02:26:38;2.97;;;1.88;;
51764;SDS011;37835;53.256;6.456;2023-06-14T02:29:04;2.50;;;1.67;;
51764;SDS011;37835;53.256;6.456;2023-06-14T02:31:40;1.52;;;1.42;;
51764;SDS011;37835;53.256;6.456;2023-06-14T02:34:06;4.50;;;1.80;;
51764;SDS011;37835;53.256;6.456;2023-06-14T02:36:33;3.65;;;1.70;;
51764;SDS011;37835;53.256;6.456;2023-06-14T02:39:00;9.38;;;1.80;;
51764;SDS011;37835;53.256;6.456;2023-06-14T02:41:25;5.03;;;1.92;;
51764;SDS011;37835;53.256;6.456;2023-06-14T02:43:52;3.33;;;1.60;;
51764;SDS011;37835;53.256;6.456;2023-06-14T02:46:17;6.82;;;2.03;;
51764;SDS011;37835;53.256;6.456;2023-06-14T02:48:43;3.25;;;1.77;;
51764;SDS011;37835;53.256;6.456;2023-06-14T02:51:09;9.60;;;1.90;;
51764;SDS011;37835;53.256;6.456;2023-06-14T02:53:35;7.53;;;1.95;;
51764;SDS011;37835;53.256;6.456;2023-06-14T02:56:01;7.20;;;2.40;;
51764;SDS011;37835;53.256;6.456;2023-06-14T02:58:28;7.82;;;1.73;;
51764;SDS011;37835;53.256;6.456;2023-06-14T03:00:54;2.25;;;1.98;;
51764;SDS011;37835;53.256;6.456;2023-06-14T03:03:20;4.93;;;2.40;;
51764;SDS011;37835;53.256;6.456;2023-06-14T03:05:47;3.38;;;1.85;;
51764;SDS011;37835;53.256;6.456;2023-06-14T03:08:14;5.75;;;2.00;;
51764;SDS011;37835;53.256;6.456;2023-06-14T03:10:48;5.65;;;2.50;;
51764;SDS011;37835;53.256;6.456;2023-06-14T03:13:14;3.38;;;2.20;;
51764;SDS011;37835;53.256;6.456;2023-06-14T03:15:43;4.35;;;2.08;;
51764;SDS011;37835;53.256;6.456;2023-06-14T03:18:10;12.57;;;2.40;;
51764;SDS011;37835;53.256;6.456;2023-06-14T03:20:37;4.30;;;2.53;;
51764;SDS011;37835;53.256;6.456;2023-06-14T03:23:04;4.28;;;2.05;;
51764;SDS011;37835;53.256;6.456;2023-06-14T03:25:30;7.68;;;2.47;;
51764;SDS011;37835;53.256;6.456;2023-06-14T03:27:56;3.67;;;2.33;;
51764;SDS011;37835;53.256;6.456;2023-06-14T03:30:22;5.78;;;2.45;;
51764;SDS011;37835;53.256;6.456;2023-06-14T03:32:48;3.45;;;2.30;;
51764;SDS011;37835;53.256;6.456;2023-06-14T03:35:14;6.32;;;2.35;;
51764;SDS011;37835;53.256;6.456;2023-06-14T03:37:43;8.20;;;2.40;;
51764;SDS011;37835;53.256;6.456;2023-06-14T03:40:09;2.88;;;2.03;;
51764;SDS011;37835;53.256;6.456;2023-06-14T03:42:36;2.75;;;2.08;;
51764;SDS011;37835;53.256;6.456;2023-06-14T03:45:01;7.97;;;2.22;;
51764;SDS011;37835;53.256;6.456;2023-06-14T03:47:27;10.88;;;2.53;;
51764;SDS011;37835;53.256;6.456;2023-06-14T03:49:53;7.97;;;2.47;;
51764;SDS011;37835;53.256;6.456;2023-06-14T03:52:18;3.58;;;2.10;;
51764;SDS011;37835;53.256;6.456;2023-06-14T03:54:44;4.00;;;2.72;;
51764;SDS011;37835;53.256;6.456;2023-06-14T03:57:10;3.90;;;2.53;;
51764;SDS011;37835;53.256;6.456;2023-06-14T03:59:35;3.72;;;2.35;;
51764;SDS011;37835;53.256;6.456;2023-06-14T04:02:01;4.22;;;2.60;;
51764;SDS011;37835;53.256;6.456;2023-06-14T04:04:27;6.90;;;2.63;;
51764;SDS011;37835;53.256;6.456;2023-06-14T04:06:54;3.95;;;2.53;;
51764;SDS011;37835;53.256;6.456;2023-06-14T04:09:21;7.03;;;2.30;;
51764;SDS011;37835;53.256;6.456;2023-06-14T04:11:49;4.65;;;2.47;;
51764;SDS011;37835;53.256;6.456;2023-06-14T04:14:16;10.73;;;3.30;;
51764;SDS011;37835;53.256;6.456;2023-06-14T04:16:42;5.65;;;2.80;;
51764;SDS011;37835;53.256;6.456;2023-06-14T04:19:08;7.20;;;2.70;;
51764;SDS011;37835;53.256;6.456;2023-06-14T04:21:33;5.10;;;2.45;;
51764;SDS011;37835;53.256;6.456;2023-06-14T04:23:59;11.57;;;2.97;;
51764;SDS011;37835;53.256;6.456;2023-06-14T04:26:26;2.92;;;2.50;;
51764;SDS011;37835;53.256;6.456;2023-06-14T04:28:54;6.63;;;3.00;;
51764;SDS011;37835;53.256;6.456;2023-06-14T04:31:27;5.28;;;2.80;;
51764;SDS011;37835;53.256;6.456;2023-06-14T04:33:58;3.22;;;2.92;;
51764;SDS011;37835;53.256;6.456;2023-06-14T04:36:25;9.70;;;2.80;;
51764;SDS011;37835;53.256;6.456;2023-06-14T04:38:52;6.82;;;2.90;;
51764;SDS011;37835;53.256;6.456;2023-06-14T04:41:20;6.32;;;2.60;;
51764;SDS011;37835;53.256;6.456;2023-06-14T04:43:48;5.82;;;2.50;;
51764;SDS011;37835;53.256;6.456;2023-06-14T04:46:14;8.30;;;3.00;;
51764;SDS011;37835;53.256;6.456;2023-06-14T04:48:40;11.38;;;3.03;;
51764;SDS011;37835;53.256;6.456;2023-06-14T04:51:07;2.90;;;2.53;;
51764;SDS011;37835;53.256;6.456;2023-06-14T04:53:34;5.70;;;3.22;;
51764;SDS011;37835;53.256;6.456;2023-06-14T04:56:00;10.20;;;3.13;;
51764;SDS011;37835;53.256;6.456;2023-06-14T04:58:26;7.55;;;2.85;;
51764;SDS011;37835;53.256;6.456;2023-06-14T05:00:53;3.88;;;2.80;;
51764;SDS011;37835;53.256;6.456;2023-06-14T05:03:21;9.70;;;2.90;;
51764;SDS011;37835;53.256;6.456;2023-06-14T05:05:49;6.88;;;2.67;;
51764;SDS011;37835;53.256;6.456;2023-06-14T05:08:15;8.02;;;2.92;;
51764;SDS011;37835;53.256;6.456;2023-06-14T05:10:41;6.13;;;2.95;;
51764;SDS011;37835;53.256;6.456;2023-06-14T05:13:07;3.72;;;2.78;;
51764;SDS011;37835;53.256;6.456;2023-06-14T05:15:32;4.47;;;3.25;;
51764;SDS011;37835;53.256;6.456;2023-06-14T05:17:59;7.35;;;2.85;;
51764;SDS011;37835;53.256;6.456;2023-06-14T05:20:25;5.45;;;2.70;;
51764;SDS011;37835;53.256;6.456;2023-06-14T05:22:54;7.75;;;3.30;;
51764;SDS011;37835;53.256;6.456;2023-06-14T05:25:22;6.57;;;3.10;;
51764;SDS011;37835;53.256;6.456;2023-06-14T05:27:48;10.80;;;3.00;;
51764;SDS011;37835;53.256;6.456;2023-06-14T05:30:14;6.70;;;3.17;;
51764;SDS011;37835;53.256;6.456;2023-06-14T05:32:40;6.03;;;2.95;;
51764;SDS011;37835;53.256;6.456;2023-06-14T05:35:06;7.05;;;3.05;;
51764;SDS011;37835;53.256;6.456;2023-06-14T05:37:33;12.18;;;3.25;;
51764;SDS011;37835;53.256;6.456;2023-06-14T05:39:58;8.25;;;3.15;;
51764;SDS011;37835;53.256;6.456;2023-06-14T05:42:24;9.13;;;3.15;;
51764;SDS011;37835;53.256;6.456;2023-06-14T05:44:49;5.28;;;2.80;;
51764;SDS011;37835;53.256;6.456;2023-06-14T05:47:15;3.47;;;2.80;;
51764;SDS011;37835;53.256;6.456;2023-06-14T05:49:41;6.75;;;2.70;;
51764;SDS011;37835;53.256;6.456;2023-06-14T05:52:07;9.02;;;3.40;;
51764;SDS011;37835;53.256;6.456;2023-06-14T05:54:33;8.35;;;3.00;;
51764;SDS011;37835;53.256;6.456;2023-06-14T05:56:58;5.20;;;3.20;;
51764;SDS011;37835;53.256;6.456;2023-06-14T05:59:26;6.45;;;3.25;;
51764;SDS011;37835;53.256;6.456;2023-06-14T06:01:52;4.95;;;2.72;;
51764;SDS011;37835;53.256;6.456;2023-06-14T06:04:18;6.32;;;3.38;;
51764;SDS011;37835;53.256;6.456;2023-06-14T06:06:44;7.43;;;3.30;;
51764;SDS011;37835;53.256;6.456;2023-06-14T06:09:10;3.70;;;2.92;;
51764;SDS011;37835;53.256;6.456;2023-06-14T06:11:35;7.80;;;3.03;;
51764;SDS011;37835;53.256;6.456;2023-06-14T06:14:01;7.38;;;3.38;;
51764;SDS011;37835;53.256;6.456;2023-06-14T06:16:27;4.70;;;2.90;;
51764;SDS011;37835;53.256;6.456;2023-06-14T06:18:52;7.10;;;3.25;;
51764;SDS011;37835;53.256;6.456;2023-06-14T06:21:18;5.70;;;3.00;;
51764;SDS011;37835;53.256;6.456;2023-06-14T06:23:44;11.23;;;3.50;;
51764;SDS011;37835;53.256;6.456;2023-06-14T06:26:09;5.60;;;2.97;;
51764;SDS011;37835;53.256;6.456;2023-06-14T06:28:35;6.28;;;3.22;;
51764;SDS011;37835;53.256;6.456;2023-06-14T06:31:00;14.30;;;3.20;;
51764;SDS011;37835;53.256;6.456;2023-06-14T06:33:26;8.30;;;3.03;;
51764;SDS011;37835;53.256;6.456;2023-06-14T06:35:52;7.05;;;3.05;;
51764;SDS011;37835;53.256;6.456;2023-06-14T06:38:17;6.65;;;2.95;;
51764;SDS011;37835;53.256;6.456;2023-06-14T06:40:44;7.45;;;3.97;;
51764;SDS011;37835;53.256;6.456;2023-06-14T06:43:15;6.28;;;3.00;;
51764;SDS011;37835;53.256;6.456;2023-06-14T06:45:42;5.70;;;3.10;;
51764;SDS011;37835;53.256;6.456;2023-06-14T06:48:08;6.63;;;2.88;;
51764;SDS011;37835;53.256;6.456;2023-06-14T06:50:37;9.27;;;3.58;;
51764;SDS011;37835;53.256;6.456;2023-06-14T06:53:02;5.35;;;3.15;;
51764;SDS011;37835;53.256;6.456;2023-06-14T06:55:28;5.90;;;3.10;;
51764;SDS011;37835;53.256;6.456;2023-06-14T06:57:54;5.80;;;2.97;;
51764;SDS011;37835;53.256;6.456;2023-06-14T07:00:20;12.40;;;3.28;;
51764;SDS011;37835;53.256;6.456;2023-06-14T07:02:46;11.40;;;3.05;;
51764;SDS011;37835;53.256;6.456;2023-06-14T07:05:12;7.30;;;3.22;;
51764;SDS011;37835;53.256;6.456;2023-06-14T07:07:37;3.80;;;2.60;;
51764;SDS011;37835;53.256;6.456;2023-06-14T07:10:03;6.47;;;2.83;;
51764;SDS011;37835;53.256;6.456;2023-06-14T07:12:33;8.00;;;2.63;;
51764;SDS011;37835;53.256;6.456;2023-06-14T07:15:01;8.48;;;3.00;;
51764;SDS011;37835;53.256;6.456;2023-06-14T07:17:27;9.10;;;2.70;;
51764;SDS011;37835;53.256;6.456;2023-06-14T07:19:52;4.28;;;2.90;;
51764;SDS011;37835;53.256;6.456;2023-06-14T07:22:18;6.68;;;2.70;;
51764;SDS011;37835;53.256;6.456;2023-06-14T07:24:44;7.00;;;2.47;;
51764;SDS011;37835;53.256;6.456;2023-06-14T07:27:10;2.92;;;2.50;;
51764;SDS011;37835;53.256;6.456;2023-06-14T07:29:38;8.10;;;2.58;;
51764;SDS011;37835;53.256;6.456;2023-06-14T07:32:03;7.32;;;2.47;;
51764;SDS011;37835;53.256;6.456;2023-06-14T07:34:29;10.57;;;3.13;;
51764;SDS011;37835;53.256;6.456;2023-06-14T07:36:55;5.00;;;2.22;;
51764;SDS011;37835;53.256;6.456;2023-06-14T07:39:21;5.47;;;2.55;;
51764;SDS011;37835;53.256;6.456;2023-06-14T07:41:46;2.53;;;1.90;;
51764;SDS011;37835;53.256;6.456;2023-06-14T07:44:12;4.03;;;2.42;;
51764;SDS011;37835;53.256;6.456;2023-06-14T07:46:38;15.70;;;2.60;;
51764;SDS011;37835;53.256;6.456;2023-06-14T07:49:04;7.60;;;2.40;;
51764;SDS011;37835;53.256;6.456;2023-06-14T07:51:30;7.88;;;2.33;;
51764;SDS011;37835;53.256;6.456;2023-06-14T07:53:55;5.15;;;2.10;;
51764;SDS011;37835;53.256;6.456;2023-06-14T07:56:21;5.53;;;2.42;;
51764;SDS011;37835;53.256;6.456;2023-06-14T07:58:48;2.28;;;1.83;;
51764;SDS011;37835;53.256;6.456;2023-06-14T08:01:13;9.27;;;2.35;;
51764;SDS011;37835;53.256;6.456;2023-06-14T08:03:40;6.57;;;2.20;;
51764;SDS011;37835;53.256;6.456;2023-06-14T08:06:06;5.93;;;2.17;;
51764;SDS011;37835;53.256;6.456;2023-06-14T08:08:32;4.30;;;2.00;;
51764;SDS011;37835;53.256;6.456;2023-06-14T08:10:58;6.28;;;2.20;;
51764;SDS011;37835;53.256;6.456;2023-06-14T08:13:23;3.97;;;2.03;;
51764;SDS011;37835;53.256;6.456;2023-06-14T08:15:49;5.40;;;1.98;;
51764;SDS011;37835;53.256;6.456;2023-06-14T08:18:14;26.52;;;3.15;;
51764;SDS011;37835;53.256;6.456;2023-06-14T08:20:40;8.38;;;2.08;;
51764;SDS011;37835;53.256;6.456;2023-06-14T08:23:06;5.85;;;2.00;;
51764;SDS011;37835;53.256;6.456;2023-06-14T08:25:33;11.27;;;2.20;;
51764;SDS011;37835;53.256;6.456;2023-06-14T08:27:58;7.43;;;2.10;;
51764;SDS011;37835;53.256;6.456;2023-06-14T08:30:25;11.15;;;2.33;;
51764;SDS011;37835;53.256;6.456;2023-06-14T08:32:50;8.77;;;2.15;;
51764;SDS011;37835;53.256;6.456;2023-06-14T08:35:16;2.05;;;1.92;;
51764;SDS011;37835;53.256;6.456;2023-06-14T08:37:43;7.72;;;2.17;;
51764;SDS011;37835;53.256;6.456;2023-06-14T08:40:30;6.20;;;2.20;;
51764;SDS011;37835;53.256;6.456;2023-06-14T08:42:55;5.30;;;2.05;;
51764;SDS011;37835;53.256;6.456;2023-06-14T08:45:22;12.07;;;2.25;;
51764;SDS011;37835;53.256;6.456;2023-06-14T08:47:49;26.02;;;2.88;;
51764;SDS011;37835;53.256;6.456;2023-06-14T08:50:22;13.10;;;2.17;;
51764;SDS011;37835;53.256;6.456;2023-06-14T08:52:55;8.68;;;1.83;;
51764;SDS011;37835;53.256;6.456;2023-06-14T08:55:25;7.07;;;2.43;;
51764;SDS011;37835;53.256;6.456;2023-06-14T08:57:56;4.80;;;1.90;;
51764;SDS011;37835;53.256;6.456;2023-06-14T09:00:23;7.80;;;2.17;;
51764;SDS011;37835;53.256;6.456;2023-06-14T09:02:50;6.15;;;2.40;;
51764;SDS011;37835;53.256;6.456;2023-06-14T09:05:22;5.53;;;2.10;;
51764;SDS011;37835;53.256;6.456;2023-06-14T09:07:51;15.80;;;2.10;;
51764;SDS011;37835;53.256;6.456;2023-06-14T09:10:17;5.57;;;1.80;;
51764;SDS011;37835;53.256;6.456;2023-06-14T09:12:44;8.23;;;2.13;;
51764;SDS011;37835;53.256;6.456;2023-06-14T09:15:09;11.00;;;2.30;;
51764;SDS011;37835;53.256;6.456;2023-06-14T09:17:35;12.95;;;2.03;;
51764;SDS011;37835;53.256;6.456;2023-06-14T09:20:04;10.35;;;1.88;;
51764;SDS011;37835;53.256;6.456;2023-06-14T09:22:32;6.18;;;1.98;;
51764;SDS011;37835;53.256;6.456;2023-06-14T09:24:58;2.17;;;1.73;;
51764;SDS011;37835;53.256;6.456;2023-06-14T09:27:27;3.05;;;1.90;;
51764;SDS011;37835;53.256;6.456;2023-06-14T09:29:53;10.60;;;2.55;;
51764;SDS011;37835;53.256;6.456;2023-06-14T09:32:20;10.15;;;2.33;;
51764;SDS011;37835;53.256;6.456;2023-06-14T09:34:46;11.50;;;3.17;;
51764;SDS011;37835;53.256;6.456;2023-06-14T09:37:12;4.25;;;2.13;;
51764;SDS011;37835;53.256;6.456;2023-06-14T09:39:51;8.20;;;2.10;;
51764;SDS011;37835;53.256;6.456;2023-06-14T09:42:17;16.23;;;3.10;;
51764;SDS011;37835;53.256;6.456;2023-06-14T09:44:45;10.80;;;2.03;;
51764;SDS011;37835;53.256;6.456;2023-06-14T09:47:14;5.90;;;2.03;;
51764;SDS011;37835;53.256;6.456;2023-06-14T09:49:41;8.63;;;2.20;;
51764;SDS011;37835;53.256;6.456;2023-06-14T09:52:10;11.52;;;1.90;;
51764;SDS011;37835;53.256;6.456;2023-06-14T09:54:42;8.10;;;2.13;;
51764;SDS011;37835;53.256;6.456;2023-06-14T09:57:12;11.80;;;2.00;;
51764;SDS011;37835;53.256;6.456;2023-06-14T09:59:45;10.32;;;2.42;;
51764;SDS011;37835;53.256;6.456;2023-06-14T10:02:23;5.78;;;1.63;;
51764;SDS011;37835;53.256;6.456;2023-06-14T10:05:04;6.65;;;1.90;;
51764;SDS011;37835;53.256;6.456;2023-06-14T10:10:15;3.28;;;1.85;;
51764;SDS011;37835;53.256;6.456;2023-06-14T10:12:41;5.80;;;1.90;;
51764;SDS011;37835;53.256;6.456;2023-06-14T10:15:11;11.27;;;2.15;;
51764;SDS011;37835;53.256;6.456;2023-06-14T10:17:49;4.50;;;1.75;;
51764;SDS011;37835;53.256;6.456;2023-06-14T10:23:15;4.57;;;2.00;;
51764;SDS011;37835;53.256;6.456;2023-06-14T10:25:43;3.20;;;1.83;;
51764;SDS011;37835;53.256;6.456;2023-06-14T10:28:19;7.80;;;1.98;;
51764;SDS011;37835;53.256;6.456;2023-06-14T10:31:07;5.72;;;2.00;;
51764;SDS011;37835;53.256;6.456;2023-06-14T10:36:27;4.95;;;1.77;;
51764;SDS011;37835;53.256;6.456;2023-06-14T10:38:59;12.13;;;1.95;;
51764;SDS011;37835;53.256;6.456;2023-06-14T10:41:50;25.38;;;2.33;;
51764;SDS011;37835;53.256;6.456;2023-06-14T10:46:47;5.80;;;1.52;;
51764;SDS011;37835;53.256;6.456;2023-06-14T10:49:19;4.57;;;1.45;;
51764;SDS011;37835;53.256;6.456;2023-06-14T10:52:02;8.85;;;2.00;;
51764;SDS011;37835;53.256;6.456;2023-06-14T10:54:28;21.25;;;2.97;;
51764;SDS011;37835;53.256;6.456;2023-06-14T10:56:53;3.38;;;1.90;;
51764;SDS011;37835;53.256;6.456;2023-06-14T10:59:20;6.13;;;1.50;;
51764;SDS011;37835;53.256;6.456;2023-06-14T11:04:52;6.40;;;1.80;;
51764;SDS011;37835;53.256;6.456;2023-06-14T11:12:39;4.47;;;1.90;;
51764;SDS011;37835;53.256;6.456;2023-06-14T11:15:07;4.03;;;1.70;;
51764;SDS011;37835;53.256;6.456;2023-06-14T11:17:33;5.32;;;1.80;;
51764;SDS011;37835;53.256;6.456;2023-06-14T11:20:11;12.50;;;2.15;;
51764;SDS011;37835;53.256;6.456;2023-06-14T11:22:43;23.75;;;2.05;;
51764;SDS011;37835;53.256;6.456;2023-06-14T11:25:13;3.80;;;1.60;;
51764;SDS011;37835;53.256;6.456;2023-06-14T11:27:41;5.18;;;1.98;;
51764;SDS011;37835;53.256;6.456;2023-06-14T11:30:08;12.80;;;2.00;;
51764;SDS011;37835;53.256;6.456;2023-06-14T11:32:37;8.45;;;1.90;;
51764;SDS011;37835;53.256;6.456;2023-06-14T11:35:03;6.20;;;1.40;;
51764;SDS011;37835;53.256;6.456;2023-06-14T11:37:30;2.15;;;1.60;;
51764;SDS011;37835;53.256;6.456;2023-06-14T11:39:58;1.75;;;1.38;;
51764;SDS011;37835;53.256;6.456;2023-06-14T11:42:24;5.07;;;1.80;;
51764;SDS011;37835;53.256;6.456;2023-06-14T11:44:53;3.33;;;1.45;;
51764;SDS011;37835;53.256;6.456;2023-06-14T11:47:18;4.88;;;1.80;;
51764;SDS011;37835;53.256;6.456;2023-06-14T11:49:44;6.70;;;1.40;;
51764;SDS011;37835;53.256;6.456;2023-06-14T11:52:10;5.30;;;1.33;;
51764;SDS011;37835;53.256;6.456;2023-06-14T11:54:36;4.03;;;1.30;;
51764;SDS011;37835;53.256;6.456;2023-06-14T11:57:02;6.32;;;1.55;;
51764;SDS011;37835;53.256;6.456;2023-06-14T11:59:29;12.18;;;1.92;;
51764;SDS011;37835;53.256;6.456;2023-06-14T12:01:56;19.38;;;1.77;;
51764;SDS011;37835;53.256;6.456;2023-06-14T12:04:28;7.63;;;1.38;;
51764;SDS011;37835;53.256;6.456;2023-06-14T12:06:55;6.68;;;1.38;;
51764;SDS011;37835;53.256;6.456;2023-06-14T12:09:22;6.68;;;1.40;;
51764;SDS011;37835;53.256;6.456;2023-06-14T12:11:50;4.22;;;1.38;;
51764;SDS011;37835;53.256;6.456;2023-06-14T12:14:28;11.30;;;1.55;;
51764;SDS011;37835;53.256;6.456;2023-06-14T12:17:03;8.93;;;2.10;;
51764;SDS011;37835;53.256;6.456;2023-06-14T12:19:32;5.65;;;1.40;;
51764;SDS011;37835;53.256;6.456;2023-06-14T12:22:01;9.50;;;1.40;;
51764;SDS011;37835;53.256;6.456;2023-06-14T12:24:29;17.23;;;1.85;;
51764;SDS011;37835;53.256;6.456;2023-06-14T12:26:59;18.38;;;1.95;;
51764;SDS011;37835;53.256;6.456;2023-06-14T12:29:28;12.50;;;1.75;;
51764;SDS011;37835;53.256;6.456;2023-06-14T12:31:54;3.22;;;1.30;;
51764;SDS011;37835;53.256;6.456;2023-06-14T12:34:22;7.05;;;1.50;;
51764;SDS011;37835;53.256;6.456;2023-06-14T12:36:49;3.50;;;1.40;;
51764;SDS011;37835;53.256;6.456;2023-06-14T12:39:15;4.22;;;1.40;;
51764;SDS011;37835;53.256;6.456;2023-06-14T12:41:41;4.15;;;1.30;;
51764;SDS011;37835;53.256;6.456;2023-06-14T12:44:07;2.20;;;1.02;;
51764;SDS011;37835;53.256;6.456;2023-06-14T12:46:33;3.65;;;1.25;;
51764;SDS011;37835;53.256;6.456;2023-06-14T12:48:59;5.10;;;1.55;;
51764;SDS011;37835;53.256;6.456;2023-06-14T12:51:25;1.33;;;1.02;;
51764;SDS011;37835;53.256;6.456;2023-06-14T12:53:51;2.10;;;1.30;;
51764;SDS011;37835;53.256;6.456;2023-06-14T12:56:17;2.65;;;1.02;;
51764;SDS011;37835;53.256;6.456;2023-06-14T12:58:43;1.92;;;1.40;;
51764;SDS011;37835;53.256;6.456;2023-06-14T13:01:08;2.95;;;0.90;;
51764;SDS011;37835;53.256;6.456;2023-06-14T13:03:34;1.35;;;1.25;;
51764;SDS011;37835;53.256;6.456;2023-06-14T13:06:00;4.75;;;1.05;;
51764;SDS011;37835;53.256;6.456;2023-06-14T13:08:27;10.70;;;1.30;;
51764;SDS011;37835;53.256;6.456;2023-06-14T13:10:53;4.80;;;1.23;;
51764;SDS011;37835;53.256;6.456;2023-06-14T13:13:19;5.10;;;1.50;;
51764;SDS011;37835;53.256;6.456;2023-06-14T13:15:45;10.80;;;1.95;;
51764;SDS011;37835;53.256;6.456;2023-06-14T13:18:14;3.58;;;1.40;;
51764;SDS011;37835;53.256;6.456;2023-06-14T13:20:40;3.15;;;1.10;;
51764;SDS011;37835;53.256;6.456;2023-06-14T13:23:06;3.38;;;1.20;;
51764;SDS011;37835;53.256;6.456;2023-06-14T13:25:38;3.95;;;1.25;;
51764;SDS011;37835;53.256;6.456;2023-06-14T13:28:05;1.20;;;1.10;;
51764;SDS011;37835;53.256;6.456;2023-06-14T13:30:31;5.00;;;1.33;;
51764;SDS011;37835;53.256;6.456;2023-06-14T13:32:57;8.27;;;1.48;;
51764;SDS011;37835;53.256;6.456;2023-06-14T13:35:23;5.30;;;1.30;;
51764;SDS011;37835;53.256;6.456;2023-06-14T13:37:50;5.53;;;1.30;;
51764;SDS011;37835;53.256;6.456;2023-06-14T13:40:16;2.00;;;1.45;;
51764;SDS011;37835;53.256;6.456;2023-06-14T13:42:41;1.88;;;1.20;;
51764;SDS011;37835;53.256;6.456;2023-06-14T13:45:07;5.70;;;1.40;;
51764;SDS011;37835;53.256;6.456;2023-06-14T13:47:35;2.78;;;1.10;;
51764;SDS011;37835;53.256;6.456;2023-06-14T13:50:00;3.08;;;1.08;;
51764;SDS011;37835;53.256;6.456;2023-06-14T13:52:28;3.95;;;1.35;;
51764;SDS011;37835;53.256;6.456;2023-06-14T13:54:53;1.95;;;1.30;;
51764;SDS011;37835;53.256;6.456;2023-06-14T13:57:19;7.68;;;1.30;;
51764;SDS011;37835;53.256;6.456;2023-06-14T13:59:44;2.55;;;1.05;;
51764;SDS011;37835;53.256;6.456;2023-06-14T14:02:10;1.20;;;1.10;;
51764;SDS011;37835;53.256;6.456;2023-06-14T14:04:36;8.98;;;1.45;;
51764;SDS011;37835;53.256;6.456;2023-06-14T14:07:03;14.32;;;2.05;;
51764;SDS011;37835;53.256;6.456;2023-06-14T14:09:30;6.07;;;1.27;;
51764;SDS011;37835;53.256;6.456;2023-06-14T14:11:57;7.07;;;1.35;;
51764;SDS011;37835;53.256;6.456;2023-06-14T14:14:23;2.67;;;1.40;;
51764;SDS011;37835;53.256;6.456;2023-06-14T14:16:49;4.40;;;1.40;;
51764;SDS011;37835;53.256;6.456;2023-06-14T14:19:16;2.70;;;1.15;;
51764;SDS011;37835;53.256;6.456;2023-06-14T14:21:44;5.82;;;1.30;;
51764;SDS011;37835;53.256;6.456;2023-06-14T14:24:09;5.78;;;1.60;;
51764;SDS011;37835;53.256;6.456;2023-06-14T14:26:36;1.45;;;1.20;;
51764;SDS011;37835;53.256;6.456;2023-06-14T14:29:01;5.28;;;1.50;;
51764;SDS011;37835;53.256;6.456;2023-06-14T14:31:27;7.82;;;1.50;;
51764;SDS011;37835;53.256;6.456;2023-06-14T14:33:53;1.42;;;1.20;;
51764;SDS011;37835;53.256;6.456;2023-06-14T14:36:19;6.07;;;1.58;;
51764;SDS011;37835;53.256;6.456;2023-06-14T14:38:45;14.20;;;1.98;;
51764;SDS011;37835;53.256;6.456;2023-06-14T14:41:12;4.40;;;1.65;;
51764;SDS011;37835;53.256;6.456;2023-06-14T14:43:37;2.95;;;1.30;;
51764;SDS011;37835;53.256;6.456;2023-06-14T14:46:03;4.82;;;1.33;;
51764;SDS011;37835;53.256;6.456;2023-06-14T14:48:29;1.40;;;1.30;;
51764;SDS011;37835;53.256;6.456;2023-06-14T14:50:54;11.32;;;2.05;;
51764;SDS011;37835;53.256;6.456;2023-06-14T14:53:20;6.43;;;1.67;;
51764;SDS011;37835;53.256;6.456;2023-06-14T14:55:45;9.02;;;1.67;;
51764;SDS011;37835;53.256;6.456;2023-06-14T14:58:12;3.28;;;1.58;;
51764;SDS011;37835;53.256;6.456;2023-06-14T15:00:38;2.95;;;2.00;;
51764;SDS011;37835;53.256;6.456;2023-06-14T15:03:03;7.22;;;1.60;;
51764;SDS011;37835;53.256;6.456;2023-06-14T15:05:29;8.75;;;2.63;;
51764;SDS011;37835;53.256;6.456;2023-06-14T15:07:55;7.85;;;2.20;;
51764;SDS011;37835;53.256;6.456;2023-06-14T15:10:20;9.85;;;2.15;;